< Typhoon 197305 1973 Season Typhoon 197307 >
Typhoon 197306 (ELLEN)
General InformationTrack Information on Google Maps || NewsDisaster Info.ResourceGoogle EarthGE AnimationAtom FeedGeoJSON
Detalied Best Track (Time Zone = UTC)
Year Month Day Hour Lat. Long. Pressure (hPa) Wind (kt) Class Image Chart
1973 7 16 00 20.0 135.6 1008 0 2 -- Chart
1973 7 16 06 20.0 136.5 1008 0 2 -- Chart
1973 7 16 12 20.3 137.5 1004 0 2 -- Chart
1973 7 16 18 20.5 138.0 1004 0 2 -- Chart
1973 7 17 00 20.6 138.5 1004 0 2 -- Chart
1973 7 17 06 21.0 139.1 1000 0 2 -- Chart
1973 7 17 12 21.4 139.1 1000 0 2 -- Chart
1973 7 17 18 21.9 139.1 996 0 2 -- Chart
1973 7 18 00 22.3 138.8 975 0 9 -- Chart
1973 7 18 06 22.5 138.4 975 0 9 -- Chart
1973 7 18 12 22.9 138.4 965 0 9 -- Chart
1973 7 18 18 23.7 138.3 950 0 9 -- Chart
1973 7 19 00 24.3 138.2 940 0 9 -- Chart
1973 7 19 06 26.0 138.3 940 0 9 -- Chart
1973 7 19 12 26.8 138.4 955 0 9 -- Chart
1973 7 19 18 28.3 138.4 960 0 9 -- Chart
1973 7 20 00 29.3 138.2 975 0 9 -- Chart
1973 7 20 06 30.8 137.8 980 0 9 -- Chart
1973 7 20 12 31.5 137.1 985 0 9 -- Chart
1973 7 20 18 32.1 136.0 990 0 9 -- Chart
1973 7 21 00 32.1 136.5 992 0 9 -- Chart
1973 7 21 06 31.9 136.5 994 0 9 -- Chart
1973 7 21 12 31.6 136.4 994 0 9 -- Chart
1973 7 21 18 31.3 136.3 996 0 2 -- Chart
1973 7 22 00 31.1 136.2 996 0 2 -- Chart
1973 7 22 06 30.9 136.0 996 0 2 -- Chart
1973 7 22 12 30.6 135.6 996 0 2 -- Chart
1973 7 22 18 30.4 134.9 996 0 2 -- Chart
1973 7 23 00 30.3 134.0 998 0 2 -- Chart
1973 7 23 06 30.2 133.3 998 0 2 -- Chart
1973 7 23 12 30.1 132.4 1000 0 2 -- Chart
1973 7 23 18 30.2 131.5 1000 0 2 -- Chart
1973 7 24 00 30.4 130.4 1000 0 2 -- Chart
1973 7 24 06 30.6 129.7 1000 0 2 -- Chart
1973 7 24 12 31.0 129.5 1000 0 2 -- Chart
1973 7 24 18 31.4 129.5 1000 0 2 -- Chart
1973 7 25 00 32.0 129.6 1000 0 2 -- Chart
1973 7 25 06 32.3 129.8 1000 0 9 -- Chart
1973 7 25 12 32.7 130.7 1000 0 9 -- Chart
1973 7 25 18 32.9 131.6 1004 0 2 -- Chart
1973 7 26 00 33.0 132.5 1004 0 2 -- Chart
1973 7 26 06 33.0 133.0 1004 0 2 -- Chart
1973 7 26 12 32.9 133.8 1004 0 2 -- Chart
1973 7 26 18 32.6 134.3 1004 0 2 -- Chart
1973 7 27 00 32.0 135.0 1002 0 2 -- Chart
1973 7 27 06 31.8 135.2 1000 0 2 -- Chart
1973 7 27 12 31.6 135.5 1000 0 2 -- Chart
1973 7 27 18 31.5 136.0 1000 0 2 -- Chart
1973 7 28 00 31.8 136.4 998 0 9 -- Chart
1973 7 28 06 32.6 137.2 994 0 9 -- Chart
1973 7 28 12 33.3 137.3 990 0 9 -- Chart
1973 7 28 18 34.1 137.3 996 0 9 -- Chart
1973 7 29 00 34.6 137.0 998 0 9 -- Chart
Japan Meteorological Agency Best Track Data | Correction Date : 1989-06-01
< Typhoon 197305 1973 Season Typhoon 197307 >

Help